Midland City, Alabama
Current Conditions -  °F | °C
As of 3:53 AM on Saturday 01 Nov 2014 (Local Time) from KDHN Reporting Station
Clear Clear  
Wind Chill: 33°   Ceiling: Unl
Heat Index: 40°   Visibility: 10mi
Dew Point: 25°   Wind: 13mph
Humidity: 55%   Direction: 320°NW
Pressure: 30.13"   Gusts: NA
Location:  31.32°N, 85.49°W
Report Text: KDHN 010853Z AUTO 32011KT 10SM CLR 04/M04 A3013 RMK AO2 SLP201 T00441039 51016
Loading
Personal Weather Stations






























Interactive Weather Map
Tropical Storm Tracking
New forecast layout! Learn more

10-Day Weather Forecast

Advertisements
Track Severe Weather on mobile